sensor_id;sensor_type;location;lat;lon;timestamp;P1;durP1;ratioP1;P2;durP2;ratioP2
13461;SDS011;6803;45.264;5.468;2022-12-18T00:01:57;27.47;;;16.67;;
13461;SDS011;6803;45.264;5.468;2022-12-18T00:04:29;24.80;;;15.77;;
13461;SDS011;6803;45.264;5.468;2022-12-18T00:06:59;29.27;;;16.90;;
13461;SDS011;6803;45.264;5.468;2022-12-18T00:09:30;29.23;;;16.60;;
13461;SDS011;6803;45.264;5.468;2022-12-18T00:12:03;32.20;;;19.27;;
13461;SDS011;6803;45.264;5.468;2022-12-18T00:14:36;32.77;;;18.70;;
13461;SDS011;6803;45.264;5.468;2022-12-18T00:19:57;32.10;;;18.13;;
13461;SDS011;6803;45.264;5.468;2022-12-18T00:22:28;29.77;;;17.23;;
13461;SDS011;6803;45.264;5.468;2022-12-18T00:24:59;29.57;;;17.33;;
13461;SDS011;6803;45.264;5.468;2022-12-18T00:27:30;27.67;;;15.93;;
13461;SDS011;6803;45.264;5.468;2022-12-18T00:30:00;30.70;;;17.60;;
13461;SDS011;6803;45.264;5.468;2022-12-18T00:32:32;31.97;;;17.80;;
13461;SDS011;6803;45.264;5.468;2022-12-18T00:35:03;33.67;;;18.93;;
13461;SDS011;6803;45.264;5.468;2022-12-18T00:37:35;33.43;;;18.57;;
13461;SDS011;6803;45.264;5.468;2022-12-18T00:40:07;35.57;;;18.97;;
13461;SDS011;6803;45.264;5.468;2022-12-18T00:42:40;32.77;;;18.63;;
13461;SDS011;6803;45.264;5.468;2022-12-18T00:45:26;25.97;;;15.70;;
13461;SDS011;6803;45.264;5.468;2022-12-18T00:47:58;28.10;;;16.57;;
13461;SDS011;6803;45.264;5.468;2022-12-18T00:50:29;30.57;;;16.87;;
13461;SDS011;6803;45.264;5.468;2022-12-18T00:53:00;32.97;;;17.23;;
13461;SDS011;6803;45.264;5.468;2022-12-18T00:58:20;31.80;;;15.90;;
13461;SDS011;6803;45.264;5.468;2022-12-18T01:00:50;33.27;;;17.13;;
13461;SDS011;6803;45.264;5.468;2022-12-18T01:03:21;32.60;;;17.10;;
13461;SDS011;6803;45.264;5.468;2022-12-18T01:05:52;32.73;;;17.40;;
13461;SDS011;6803;45.264;5.468;2022-12-18T01:08:22;33.60;;;17.67;;
13461;SDS011;6803;45.264;5.468;2022-12-18T01:10:53;32.00;;;18.13;;
13461;SDS011;6803;45.264;5.468;2022-12-18T01:13:24;31.10;;;16.63;;
13461;SDS011;6803;45.264;5.468;2022-12-18T01:15:55;32.10;;;18.73;;
13461;SDS011;6803;45.264;5.468;2022-12-18T01:18:26;32.00;;;17.33;;
13461;SDS011;6803;45.264;5.468;2022-12-18T01:20:56;32.67;;;18.23;;
13461;SDS011;6803;45.264;5.468;2022-12-18T01:23:28;35.60;;;18.77;;
13461;SDS011;6803;45.264;5.468;2022-12-18T01:26:03;32.37;;;19.43;;
13461;SDS011;6803;45.264;5.468;2022-12-18T01:28:34;34.60;;;19.23;;
13461;SDS011;6803;45.264;5.468;2022-12-18T01:31:13;32.03;;;18.40;;
13461;SDS011;6803;45.264;5.468;2022-12-18T01:33:46;32.33;;;18.30;;
13461;SDS011;6803;45.264;5.468;2022-12-18T01:36:19;36.50;;;19.30;;
13461;SDS011;6803;45.264;5.468;2022-12-18T01:38:51;38.47;;;20.73;;
13461;SDS011;6803;45.264;5.468;2022-12-18T01:41:22;36.23;;;18.63;;
13461;SDS011;6803;45.264;5.468;2022-12-18T01:43:57;49.07;;;27.27;;
13461;SDS011;6803;45.264;5.468;2022-12-18T01:46:28;36.87;;;19.30;;
13461;SDS011;6803;45.264;5.468;2022-12-18T01:49:00;38.60;;;20.17;;
13461;SDS011;6803;45.264;5.468;2022-12-18T01:51:31;40.40;;;20.40;;
13461;SDS011;6803;45.264;5.468;2022-12-18T01:54:02;35.30;;;18.70;;
13461;SDS011;6803;45.264;5.468;2022-12-18T01:56:33;34.57;;;18.63;;
13461;SDS011;6803;45.264;5.468;2022-12-18T01:59:03;37.87;;;18.50;;
13461;SDS011;6803;45.264;5.468;2022-12-18T02:01:36;42.50;;;20.53;;
13461;SDS011;6803;45.264;5.468;2022-12-18T02:04:19;45.53;;;23.67;;
13461;SDS011;6803;45.264;5.468;2022-12-18T02:06:51;57.07;;;26.30;;
13461;SDS011;6803;45.264;5.468;2022-12-18T02:09:25;55.17;;;25.13;;
13461;SDS011;6803;45.264;5.468;2022-12-18T02:11:59;47.80;;;22.73;;
13461;SDS011;6803;45.264;5.468;2022-12-18T02:14:33;36.67;;;18.67;;
13461;SDS011;6803;45.264;5.468;2022-12-18T02:17:06;35.70;;;18.33;;
13461;SDS011;6803;45.264;5.468;2022-12-18T02:19:45;32.17;;;18.77;;
13461;SDS011;6803;45.264;5.468;2022-12-18T02:22:26;30.93;;;17.23;;
13461;SDS011;6803;45.264;5.468;2022-12-18T02:25:02;36.00;;;18.17;;
13461;SDS011;6803;45.264;5.468;2022-12-18T02:27:36;31.03;;;16.93;;
13461;SDS011;6803;45.264;5.468;2022-12-18T02:32:59;43.67;;;21.57;;
13461;SDS011;6803;45.264;5.468;2022-12-18T02:35:33;37.00;;;18.57;;
13461;SDS011;6803;45.264;5.468;2022-12-18T02:38:05;32.50;;;17.37;;
13461;SDS011;6803;45.264;5.468;2022-12-18T02:40:36;31.30;;;17.67;;
13461;SDS011;6803;45.264;5.468;2022-12-18T02:43:10;30.57;;;17.00;;
13461;SDS011;6803;45.264;5.468;2022-12-18T02:45:47;35.47;;;18.27;;
13461;SDS011;6803;45.264;5.468;2022-12-18T02:48:20;35.87;;;18.90;;
13461;SDS011;6803;45.264;5.468;2022-12-18T02:50:53;29.27;;;16.43;;
13461;SDS011;6803;45.264;5.468;2022-12-18T02:53:27;40.03;;;19.27;;
13461;SDS011;6803;45.264;5.468;2022-12-18T02:56:02;34.60;;;17.60;;
13461;SDS011;6803;45.264;5.468;2022-12-18T02:58:37;33.97;;;18.00;;
13461;SDS011;6803;45.264;5.468;2022-12-18T03:01:10;36.30;;;18.43;;
13461;SDS011;6803;45.264;5.468;2022-12-18T03:06:35;30.73;;;17.27;;
13461;SDS011;6803;45.264;5.468;2022-12-18T03:09:09;38.57;;;19.43;;
13461;SDS011;6803;45.264;5.468;2022-12-18T03:11:42;30.20;;;17.37;;
13461;SDS011;6803;45.264;5.468;2022-12-18T03:17:25;37.23;;;18.93;;
13461;SDS011;6803;45.264;5.468;2022-12-18T03:19:59;37.80;;;19.53;;
13461;SDS011;6803;45.264;5.468;2022-12-18T03:22:33;59.87;;;30.83;;
13461;SDS011;6803;45.264;5.468;2022-12-18T03:25:07;48.90;;;24.40;;
13461;SDS011;6803;45.264;5.468;2022-12-18T03:27:42;36.60;;;18.70;;
13461;SDS011;6803;45.264;5.468;2022-12-18T03:30:15;36.53;;;20.40;;
13461;SDS011;6803;45.264;5.468;2022-12-18T03:32:47;34.20;;;17.97;;
13461;SDS011;6803;45.264;5.468;2022-12-18T03:35:29;38.17;;;19.80;;
13461;SDS011;6803;45.264;5.468;2022-12-18T03:37:56;35.03;;;18.80;;
13461;SDS011;6803;45.264;5.468;2022-12-18T03:40:29;34.67;;;17.27;;
13461;SDS011;6803;45.264;5.468;2022-12-18T03:43:02;35.53;;;16.57;;
13461;SDS011;6803;45.264;5.468;2022-12-18T03:45:35;36.67;;;18.17;;
13461;SDS011;6803;45.264;5.468;2022-12-18T03:48:09;31.43;;;16.00;;
13461;SDS011;6803;45.264;5.468;2022-12-18T03:50:44;37.63;;;18.37;;
13461;SDS011;6803;45.264;5.468;2022-12-18T03:53:20;33.30;;;17.07;;
13461;SDS011;6803;45.264;5.468;2022-12-18T03:55:53;32.07;;;16.30;;
13461;SDS011;6803;45.264;5.468;2022-12-18T03:58:25;39.30;;;17.73;;
13461;SDS011;6803;45.264;5.468;2022-12-18T04:01:00;35.50;;;17.47;;
13461;SDS011;6803;45.264;5.468;2022-12-18T04:06:10;39.47;;;19.87;;
13461;SDS011;6803;45.264;5.468;2022-12-18T04:08:42;42.03;;;19.23;;
13461;SDS011;6803;45.264;5.468;2022-12-18T04:11:16;43.17;;;17.90;;
13461;SDS011;6803;45.264;5.468;2022-12-18T04:13:56;40.57;;;19.17;;
13461;SDS011;6803;45.264;5.468;2022-12-18T04:16:29;33.13;;;18.17;;
13461;SDS011;6803;45.264;5.468;2022-12-18T04:19:08;37.00;;;16.63;;
13461;SDS011;6803;45.264;5.468;2022-12-18T04:21:38;37.47;;;18.97;;
13461;SDS011;6803;45.264;5.468;2022-12-18T04:24:09;33.77;;;17.37;;
13461;SDS011;6803;45.264;5.468;2022-12-18T04:26:40;32.03;;;16.93;;
13461;SDS011;6803;45.264;5.468;2022-12-18T04:29:10;39.53;;;18.60;;
13461;SDS011;6803;45.264;5.468;2022-12-18T04:31:49;37.50;;;19.23;;
13461;SDS011;6803;45.264;5.468;2022-12-18T04:34:20;35.90;;;17.83;;
13461;SDS011;6803;45.264;5.468;2022-12-18T04:36:50;44.97;;;20.37;;
13461;SDS011;6803;45.264;5.468;2022-12-18T04:39:21;46.30;;;20.40;;
13461;SDS011;6803;45.264;5.468;2022-12-18T04:41:52;45.43;;;18.97;;
13461;SDS011;6803;45.264;5.468;2022-12-18T04:44:23;42.00;;;19.23;;
13461;SDS011;6803;45.264;5.468;2022-12-18T04:46:54;46.63;;;19.60;;
13461;SDS011;6803;45.264;5.468;2022-12-18T04:49:25;38.83;;;19.90;;
13461;SDS011;6803;45.264;5.468;2022-12-18T04:51:55;38.77;;;19.00;;
13461;SDS011;6803;45.264;5.468;2022-12-18T04:54:26;37.07;;;19.13;;
13461;SDS011;6803;45.264;5.468;2022-12-18T04:56:56;45.67;;;20.47;;
13461;SDS011;6803;45.264;5.468;2022-12-18T04:59:27;34.97;;;16.90;;
13461;SDS011;6803;45.264;5.468;2022-12-18T05:01:58;49.10;;;21.23;;
13461;SDS011;6803;45.264;5.468;2022-12-18T05:04:29;37.73;;;17.93;;
13461;SDS011;6803;45.264;5.468;2022-12-18T05:06:59;38.40;;;17.30;;
13461;SDS011;6803;45.264;5.468;2022-12-18T05:09:30;43.73;;;18.43;;
13461;SDS011;6803;45.264;5.468;2022-12-18T05:12:01;36.07;;;19.07;;
13461;SDS011;6803;45.264;5.468;2022-12-18T05:14:32;39.00;;;19.33;;
13461;SDS011;6803;45.264;5.468;2022-12-18T05:17:02;37.30;;;18.57;;
13461;SDS011;6803;45.264;5.468;2022-12-18T05:19:33;36.10;;;18.30;;
13461;SDS011;6803;45.264;5.468;2022-12-18T05:22:07;37.10;;;18.17;;
13461;SDS011;6803;45.264;5.468;2022-12-18T05:24:38;58.73;;;29.40;;
13461;SDS011;6803;45.264;5.468;2022-12-18T05:27:08;44.77;;;22.40;;
13461;SDS011;6803;45.264;5.468;2022-12-18T05:29:39;44.97;;;21.97;;
13461;SDS011;6803;45.264;5.468;2022-12-18T05:32:10;38.80;;;19.43;;
13461;SDS011;6803;45.264;5.468;2022-12-18T05:34:40;37.80;;;17.77;;
13461;SDS011;6803;45.264;5.468;2022-12-18T05:37:11;36.93;;;18.77;;
13461;SDS011;6803;45.264;5.468;2022-12-18T05:39:43;64.07;;;20.77;;
13461;SDS011;6803;45.264;5.468;2022-12-18T05:42:13;133.87;;;21.77;;
13461;SDS011;6803;45.264;5.468;2022-12-18T05:44:44;39.77;;;17.73;;
13461;SDS011;6803;45.264;5.468;2022-12-18T05:47:15;58.53;;;18.27;;
13461;SDS011;6803;45.264;5.468;2022-12-18T05:49:45;46.30;;;19.30;;
13461;SDS011;6803;45.264;5.468;2022-12-18T05:52:16;74.30;;;19.43;;
13461;SDS011;6803;45.264;5.468;2022-12-18T05:54:47;40.53;;;17.90;;
13461;SDS011;6803;45.264;5.468;2022-12-18T05:57:17;46.60;;;19.80;;
13461;SDS011;6803;45.264;5.468;2022-12-18T05:59:48;43.17;;;18.00;;
13461;SDS011;6803;45.264;5.468;2022-12-18T06:02:19;36.73;;;17.60;;
13461;SDS011;6803;45.264;5.468;2022-12-18T06:04:50;38.70;;;16.80;;
13461;SDS011;6803;45.264;5.468;2022-12-18T06:07:21;39.27;;;17.80;;
13461;SDS011;6803;45.264;5.468;2022-12-18T06:09:51;36.60;;;17.67;;
13461;SDS011;6803;45.264;5.468;2022-12-18T06:12:22;42.43;;;18.97;;
13461;SDS011;6803;45.264;5.468;2022-12-18T06:14:53;48.63;;;22.30;;
13461;SDS011;6803;45.264;5.468;2022-12-18T06:17:23;48.43;;;21.33;;
13461;SDS011;6803;45.264;5.468;2022-12-18T06:19:59;29.50;;;16.80;;
13461;SDS011;6803;45.264;5.468;2022-12-18T06:22:31;38.73;;;17.50;;
13461;SDS011;6803;45.264;5.468;2022-12-18T06:25:02;38.20;;;17.03;;
13461;SDS011;6803;45.264;5.468;2022-12-18T06:27:35;33.97;;;15.73;;
13461;SDS011;6803;45.264;5.468;2022-12-18T06:30:07;35.93;;;15.20;;
13461;SDS011;6803;45.264;5.468;2022-12-18T06:32:41;33.63;;;17.77;;
13461;SDS011;6803;45.264;5.468;2022-12-18T06:35:14;35.27;;;16.30;;
13461;SDS011;6803;45.264;5.468;2022-12-18T06:37:46;23.70;;;12.87;;
13461;SDS011;6803;45.264;5.468;2022-12-18T06:40:17;28.13;;;13.93;;
13461;SDS011;6803;45.264;5.468;2022-12-18T06:42:48;27.10;;;14.73;;
13461;SDS011;6803;45.264;5.468;2022-12-18T06:45:19;22.23;;;13.17;;
13461;SDS011;6803;45.264;5.468;2022-12-18T06:47:50;25.10;;;13.43;;
13461;SDS011;6803;45.264;5.468;2022-12-18T06:50:21;26.20;;;14.07;;
13461;SDS011;6803;45.264;5.468;2022-12-18T06:52:51;30.73;;;15.13;;
13461;SDS011;6803;45.264;5.468;2022-12-18T06:55:22;27.23;;;14.90;;
13461;SDS011;6803;45.264;5.468;2022-12-18T06:57:53;25.27;;;14.23;;
13461;SDS011;6803;45.264;5.468;2022-12-18T07:00:24;23.97;;;13.43;;
13461;SDS011;6803;45.264;5.468;2022-12-18T07:02:54;22.93;;;14.07;;
13461;SDS011;6803;45.264;5.468;2022-12-18T07:05:25;29.23;;;13.80;;
13461;SDS011;6803;45.264;5.468;2022-12-18T07:07:56;28.03;;;13.87;;
13461;SDS011;6803;45.264;5.468;2022-12-18T07:10:27;23.20;;;13.97;;
13461;SDS011;6803;45.264;5.468;2022-12-18T07:12:58;29.90;;;13.77;;
13461;SDS011;6803;45.264;5.468;2022-12-18T07:15:29;24.80;;;14.00;;
13461;SDS011;6803;45.264;5.468;2022-12-18T07:18:00;27.53;;;14.30;;
13461;SDS011;6803;45.264;5.468;2022-12-18T07:20:31;25.33;;;14.13;;
13461;SDS011;6803;45.264;5.468;2022-12-18T07:23:02;26.93;;;13.83;;
13461;SDS011;6803;45.264;5.468;2022-12-18T07:25:34;26.77;;;14.30;;
13461;SDS011;6803;45.264;5.468;2022-12-18T07:28:05;25.43;;;14.57;;
13461;SDS011;6803;45.264;5.468;2022-12-18T07:30:38;26.03;;;14.40;;
13461;SDS011;6803;45.264;5.468;2022-12-18T07:33:08;27.93;;;15.13;;
13461;SDS011;6803;45.264;5.468;2022-12-18T07:35:39;29.40;;;15.00;;
13461;SDS011;6803;45.264;5.468;2022-12-18T07:38:10;28.63;;;14.07;;
13461;SDS011;6803;45.264;5.468;2022-12-18T07:40:41;28.43;;;15.77;;
13461;SDS011;6803;45.264;5.468;2022-12-18T07:43:11;26.27;;;14.43;;
13461;SDS011;6803;45.264;5.468;2022-12-18T07:45:42;29.10;;;15.70;;
13461;SDS011;6803;45.264;5.468;2022-12-18T07:48:15;29.13;;;15.37;;
13461;SDS011;6803;45.264;5.468;2022-12-18T07:50:45;26.70;;;13.70;;
13461;SDS011;6803;45.264;5.468;2022-12-18T07:53:16;27.67;;;13.80;;
13461;SDS011;6803;45.264;5.468;2022-12-18T07:55:47;31.23;;;15.70;;
13461;SDS011;6803;45.264;5.468;2022-12-18T07:58:19;26.90;;;15.57;;
13461;SDS011;6803;45.264;5.468;2022-12-18T08:00:49;27.67;;;15.47;;
13461;SDS011;6803;45.264;5.468;2022-12-18T08:03:20;32.23;;;15.80;;
13461;SDS011;6803;45.264;5.468;2022-12-18T08:05:51;43.33;;;22.80;;
13461;SDS011;6803;45.264;5.468;2022-12-18T08:08:23;28.57;;;16.93;;
13461;SDS011;6803;45.264;5.468;2022-12-18T08:10:55;30.83;;;16.53;;
13461;SDS011;6803;45.264;5.468;2022-12-18T08:13:26;33.03;;;17.47;;
13461;SDS011;6803;45.264;5.468;2022-12-18T08:15:57;28.03;;;14.70;;
13461;SDS011;6803;45.264;5.468;2022-12-18T08:18:29;33.30;;;15.87;;
13461;SDS011;6803;45.264;5.468;2022-12-18T08:21:10;27.30;;;15.43;;
13461;SDS011;6803;45.264;5.468;2022-12-18T08:23:43;29.80;;;17.10;;
13461;SDS011;6803;45.264;5.468;2022-12-18T08:26:16;29.60;;;16.40;;
13461;SDS011;6803;45.264;5.468;2022-12-18T08:28:48;29.43;;;15.63;;
13461;SDS011;6803;45.264;5.468;2022-12-18T08:31:19;29.47;;;16.57;;
13461;SDS011;6803;45.264;5.468;2022-12-18T08:33:52;32.47;;;15.97;;
13461;SDS011;6803;45.264;5.468;2022-12-18T08:36:24;26.63;;;16.43;;
13461;SDS011;6803;45.264;5.468;2022-12-18T08:38:55;77.70;;;39.03;;
13461;SDS011;6803;45.264;5.468;2022-12-18T08:41:29;43.43;;;24.60;;
13461;SDS011;6803;45.264;5.468;2022-12-18T08:44:00;40.80;;;26.07;;
13461;SDS011;6803;45.264;5.468;2022-12-18T08:46:49;45.67;;;24.43;;
13461;SDS011;6803;45.264;5.468;2022-12-18T08:49:19;40.17;;;24.37;;
13461;SDS011;6803;45.264;5.468;2022-12-18T08:51:54;45.07;;;24.00;;
13461;SDS011;6803;45.264;5.468;2022-12-18T08:54:26;54.70;;;29.50;;
13461;SDS011;6803;45.264;5.468;2022-12-18T08:56:58;86.40;;;44.80;;
13461;SDS011;6803;45.264;5.468;2022-12-18T08:59:28;73.60;;;40.93;;
13461;SDS011;6803;45.264;5.468;2022-12-18T09:01:59;47.77;;;29.17;;
13461;SDS011;6803;45.264;5.468;2022-12-18T09:04:30;41.47;;;22.43;;
13461;SDS011;6803;45.264;5.468;2022-12-18T09:07:01;34.07;;;21.50;;
13461;SDS011;6803;45.264;5.468;2022-12-18T09:09:32;34.57;;;18.73;;
13461;SDS011;6803;45.264;5.468;2022-12-18T09:12:03;42.73;;;23.97;;
13461;SDS011;6803;45.264;5.468;2022-12-18T09:14:33;46.57;;;24.77;;
13461;SDS011;6803;45.264;5.468;2022-12-18T09:17:04;35.63;;;21.23;;
13461;SDS011;6803;45.264;5.468;2022-12-18T09:19:35;37.40;;;20.67;;
13461;SDS011;6803;45.264;5.468;2022-12-18T09:22:06;34.63;;;21.70;;
13461;SDS011;6803;45.264;5.468;2022-12-18T09:24:37;35.97;;;20.97;;
13461;SDS011;6803;45.264;5.468;2022-12-18T09:27:08;42.00;;;22.07;;
13461;SDS011;6803;45.264;5.468;2022-12-18T09:29:39;36.63;;;21.17;;
13461;SDS011;6803;45.264;5.468;2022-12-18T09:32:10;37.03;;;21.00;;
13461;SDS011;6803;45.264;5.468;2022-12-18T09:34:42;36.63;;;20.77;;
13461;SDS011;6803;45.264;5.468;2022-12-18T09:37:13;36.83;;;20.07;;
13461;SDS011;6803;45.264;5.468;2022-12-18T09:39:43;33.47;;;20.30;;
13461;SDS011;6803;45.264;5.468;2022-12-18T09:42:17;35.00;;;21.57;;
13461;SDS011;6803;45.264;5.468;2022-12-18T09:44:50;35.47;;;19.87;;
13461;SDS011;6803;45.264;5.468;2022-12-18T09:47:23;32.80;;;20.13;;
13461;SDS011;6803;45.264;5.468;2022-12-18T09:49:57;43.77;;;24.77;;
13461;SDS011;6803;45.264;5.468;2022-12-18T09:52:32;41.60;;;26.00;;
13461;SDS011;6803;45.264;5.468;2022-12-18T09:55:05;41.10;;;24.50;;
13461;SDS011;6803;45.264;5.468;2022-12-18T09:57:42;39.57;;;24.57;;
13461;SDS011;6803;45.264;5.468;2022-12-18T10:00:16;42.67;;;22.37;;
13461;SDS011;6803;45.264;5.468;2022-12-18T10:02:49;33.57;;;19.67;;
13461;SDS011;6803;45.264;5.468;2022-12-18T10:05:25;34.23;;;19.83;;
13461;SDS011;6803;45.264;5.468;2022-12-18T10:08:00;36.43;;;21.73;;
13461;SDS011;6803;45.264;5.468;2022-12-18T10:10:35;41.60;;;23.33;;
13461;SDS011;6803;45.264;5.468;2022-12-18T10:13:12;37.47;;;19.93;;
13461;SDS011;6803;45.264;5.468;2022-12-18T10:15:52;32.80;;;20.03;;
13461;SDS011;6803;45.264;5.468;2022-12-18T10:18:38;33.20;;;19.97;;
13461;SDS011;6803;45.264;5.468;2022-12-18T10:21:15;36.10;;;19.90;;
13461;SDS011;6803;45.264;5.468;2022-12-18T10:23:49;30.37;;;18.33;;
13461;SDS011;6803;45.264;5.468;2022-12-18T10:26:22;30.57;;;17.90;;
13461;SDS011;6803;45.264;5.468;2022-12-18T10:28:53;28.77;;;17.97;;
13461;SDS011;6803;45.264;5.468;2022-12-18T10:31:28;26.30;;;16.87;;
13461;SDS011;6803;45.264;5.468;2022-12-18T10:33:58;26.37;;;16.10;;
13461;SDS011;6803;45.264;5.468;2022-12-18T10:36:29;25.10;;;16.03;;
13461;SDS011;6803;45.264;5.468;2022-12-18T10:39:05;28.13;;;17.43;;
13461;SDS011;6803;45.264;5.468;2022-12-18T10:41:58;26.67;;;16.87;;
13461;SDS011;6803;45.264;5.468;2022-12-18T10:44:38;28.90;;;17.53;;
13461;SDS011;6803;45.264;5.468;2022-12-18T10:47:11;29.43;;;17.60;;
13461;SDS011;6803;45.264;5.468;2022-12-18T10:49:47;24.53;;;15.50;;
13461;SDS011;6803;45.264;5.468;2022-12-18T10:52:23;25.23;;;16.70;;
13461;SDS011;6803;45.264;5.468;2022-12-18T10:54:57;26.20;;;18.03;;
13461;SDS011;6803;45.264;5.468;2022-12-18T10:57:34;26.40;;;16.57;;
13461;SDS011;6803;45.264;5.468;2022-12-18T11:03:29;24.63;;;15.77;;
13461;SDS011;6803;45.264;5.468;2022-12-18T11:06:04;29.63;;;16.30;;
13461;SDS011;6803;45.264;5.468;2022-12-18T11:08:37;21.53;;;14.00;;
13461;SDS011;6803;45.264;5.468;2022-12-18T11:11:16;24.60;;;15.07;;
13461;SDS011;6803;45.264;5.468;2022-12-18T11:13:54;23.60;;;14.67;;
13461;SDS011;6803;45.264;5.468;2022-12-18T11:16:34;24.23;;;13.93;;
13461;SDS011;6803;45.264;5.468;2022-12-18T11:19:12;19.90;;;14.20;;
13461;SDS011;6803;45.264;5.468;2022-12-18T11:21:49;18.20;;;11.90;;
13461;SDS011;6803;45.264;5.468;2022-12-18T11:24:22;18.57;;;11.87;;
13461;SDS011;6803;45.264;5.468;2022-12-18T11:26:56;17.30;;;11.50;;
13461;SDS011;6803;45.264;5.468;2022-12-18T11:29:32;15.07;;;10.37;;
13461;SDS011;6803;45.264;5.468;2022-12-18T11:35:13;17.83;;;12.07;;
13461;SDS011;6803;45.264;5.468;2022-12-18T11:37:47;16.10;;;11.63;;
13461;SDS011;6803;45.264;5.468;2022-12-18T11:40:22;15.10;;;10.80;;
13461;SDS011;6803;45.264;5.468;2022-12-18T11:42:57;14.80;;;10.70;;
13461;SDS011;6803;45.264;5.468;2022-12-18T11:45:30;18.50;;;11.20;;
13461;SDS011;6803;45.264;5.468;2022-12-18T11:48:05;15.00;;;10.60;;
13461;SDS011;6803;45.264;5.468;2022-12-18T11:50:43;13.13;;;10.30;;
13461;SDS011;6803;45.264;5.468;2022-12-18T11:53:16;15.10;;;10.43;;
13461;SDS011;6803;45.264;5.468;2022-12-18T11:55:51;15.63;;;10.53;;
13461;SDS011;6803;45.264;5.468;2022-12-18T11:58:30;24.03;;;11.90;;
13461;SDS011;6803;45.264;5.468;2022-12-18T12:01:07;14.00;;;10.40;;
13461;SDS011;6803;45.264;5.468;2022-12-18T12:06:54;14.43;;;9.47;;
13461;SDS011;6803;45.264;5.468;2022-12-18T12:09:30;13.43;;;9.37;;
13461;SDS011;6803;45.264;5.468;2022-12-18T12:12:06;11.93;;;8.63;;
13461;SDS011;6803;45.264;5.468;2022-12-18T12:14:45;12.97;;;9.20;;
13461;SDS011;6803;45.264;5.468;2022-12-18T12:17:21;11.60;;;8.07;;
13461;SDS011;6803;45.264;5.468;2022-12-18T12:19:56;13.40;;;8.53;;
13461;SDS011;6803;45.264;5.468;2022-12-18T12:22:30;15.07;;;9.67;;
13461;SDS011;6803;45.264;5.468;2022-12-18T12:25:07;12.83;;;8.97;;
13461;SDS011;6803;45.264;5.468;2022-12-18T12:27:46;12.43;;;8.93;;
13461;SDS011;6803;45.264;5.468;2022-12-18T12:30:20;11.60;;;8.07;;
13461;SDS011;6803;45.264;5.468;2022-12-18T12:32:58;11.10;;;8.53;;
13461;SDS011;6803;45.264;5.468;2022-12-18T12:35:35;13.27;;;9.17;;
13461;SDS011;6803;45.264;5.468;2022-12-18T12:38:09;10.70;;;8.10;;
13461;SDS011;6803;45.264;5.468;2022-12-18T12:40:51;14.17;;;9.10;;
13461;SDS011;6803;45.264;5.468;2022-12-18T12:43:27;14.93;;;9.33;;
13461;SDS011;6803;45.264;5.468;2022-12-18T12:46:04;14.80;;;9.80;;
13461;SDS011;6803;45.264;5.468;2022-12-18T12:48:41;12.73;;;9.57;;
13461;SDS011;6803;45.264;5.468;2022-12-18T12:51:17;12.50;;;8.43;;
13461;SDS011;6803;45.264;5.468;2022-12-18T12:53:50;11.87;;;8.67;;
13461;SDS011;6803;45.264;5.468;2022-12-18T12:56:24;12.87;;;8.60;;
13461;SDS011;6803;45.264;5.468;2022-12-18T12:59:01;12.53;;;8.80;;
13461;SDS011;6803;45.264;5.468;2022-12-18T13:01:36;14.03;;;9.27;;
13461;SDS011;6803;45.264;5.468;2022-12-18T13:04:14;15.47;;;9.47;;
13461;SDS011;6803;45.264;5.468;2022-12-18T13:06:49;13.37;;;8.73;;
13461;SDS011;6803;45.264;5.468;2022-12-18T13:09:22;15.17;;;10.10;;
13461;SDS011;6803;45.264;5.468;2022-12-18T13:11:53;15.30;;;9.80;;
13461;SDS011;6803;45.264;5.468;2022-12-18T13:14:44;14.37;;;8.37;;
13461;SDS011;6803;45.264;5.468;2022-12-18T13:17:16;12.97;;;9.03;;
13461;SDS011;6803;45.264;5.468;2022-12-18T13:20:12;12.13;;;8.30;;
13461;SDS011;6803;45.264;5.468;2022-12-18T13:22:44;11.13;;;7.83;;
13461;SDS011;6803;45.264;5.468;2022-12-18T13:25:33;10.23;;;7.43;;
13461;SDS011;6803;45.264;5.468;2022-12-18T13:28:07;14.37;;;8.90;;
13461;SDS011;6803;45.264;5.468;2022-12-18T13:30:45;11.70;;;8.37;;
13461;SDS011;6803;45.264;5.468;2022-12-18T13:36:27;16.53;;;9.03;;
13461;SDS011;6803;45.264;5.468;2022-12-18T13:45:42;12.97;;;9.23;;
13461;SDS011;6803;45.264;5.468;2022-12-18T13:48:20;12.83;;;9.17;;
13461;SDS011;6803;45.264;5.468;2022-12-18T13:50:56;14.27;;;10.03;;
13461;SDS011;6803;45.264;5.468;2022-12-18T13:53:33;16.30;;;10.53;;
13461;SDS011;6803;45.264;5.468;2022-12-18T13:56:08;13.57;;;8.47;;
13461;SDS011;6803;45.264;5.468;2022-12-18T13:58:40;14.97;;;9.30;;
13461;SDS011;6803;45.264;5.468;2022-12-18T14:01:24;11.63;;;8.90;;
13461;SDS011;6803;45.264;5.468;2022-12-18T14:04:09;13.87;;;8.93;;
13461;SDS011;6803;45.264;5.468;2022-12-18T14:06:42;13.03;;;8.70;;
13461;SDS011;6803;45.264;5.468;2022-12-18T14:09:14;12.57;;;8.50;;
13461;SDS011;6803;45.264;5.468;2022-12-18T14:11:48;11.87;;;8.07;;
13461;SDS011;6803;45.264;5.468;2022-12-18T14:14:20;13.00;;;8.77;;
13461;SDS011;6803;45.264;5.468;2022-12-18T14:16:53;14.20;;;8.77;;
13461;SDS011;6803;45.264;5.468;2022-12-18T14:19:25;15.03;;;9.43;;
13461;SDS011;6803;45.264;5.468;2022-12-18T14:21:56;13.83;;;8.87;;
13461;SDS011;6803;45.264;5.468;2022-12-18T14:24:27;13.07;;;8.43;;
13461;SDS011;6803;45.264;5.468;2022-12-18T14:26:59;12.43;;;8.37;;
13461;SDS011;6803;45.264;5.468;2022-12-18T14:29:43;12.40;;;8.67;;
13461;SDS011;6803;45.264;5.468;2022-12-18T14:32:14;16.77;;;9.73;;
13461;SDS011;6803;45.264;5.468;2022-12-18T14:34:46;14.90;;;9.30;;
13461;SDS011;6803;45.264;5.468;2022-12-18T14:37:20;13.07;;;9.33;;
13461;SDS011;6803;45.264;5.468;2022-12-18T14:39:53;13.47;;;8.17;;
13461;SDS011;6803;45.264;5.468;2022-12-18T14:42:26;12.27;;;8.70;;
13461;SDS011;6803;45.264;5.468;2022-12-18T14:48:12;11.43;;;7.80;;
13461;SDS011;6803;45.264;5.468;2022-12-18T14:50:55;12.10;;;8.03;;
13461;SDS011;6803;45.264;5.468;2022-12-18T14:56:21;10.60;;;7.27;;
13461;SDS011;6803;45.264;5.468;2022-12-18T14:58:54;11.47;;;6.90;;
13461;SDS011;6803;45.264;5.468;2022-12-18T15:01:28;13.23;;;7.67;;
13461;SDS011;6803;45.264;5.468;2022-12-18T15:04:02;13.40;;;6.57;;
13461;SDS011;6803;45.264;5.468;2022-12-18T15:06:35;10.67;;;7.20;;
13461;SDS011;6803;45.264;5.468;2022-12-18T15:09:20;9.50;;;6.60;;
13461;SDS011;6803;45.264;5.468;2022-12-18T15:11:55;10.93;;;5.53;;
13461;SDS011;6803;45.264;5.468;2022-12-18T15:14:34;7.53;;;4.90;;
13461;SDS011;6803;45.264;5.468;2022-12-18T15:17:14;8.70;;;5.30;;
13461;SDS011;6803;45.264;5.468;2022-12-18T15:19:47;10.70;;;5.60;;
13461;SDS011;6803;45.264;5.468;2022-12-18T15:22:20;6.40;;;4.33;;
13461;SDS011;6803;45.264;5.468;2022-12-18T15:24:55;8.47;;;5.13;;
13461;SDS011;6803;45.264;5.468;2022-12-18T15:27:38;7.00;;;5.10;;
13461;SDS011;6803;45.264;5.468;2022-12-18T15:30:21;9.90;;;5.73;;
13461;SDS011;6803;45.264;5.468;2022-12-18T15:33:16;7.50;;;5.50;;
13461;SDS011;6803;45.264;5.468;2022-12-18T15:35:44;7.27;;;5.43;;
13461;SDS011;6803;45.264;5.468;2022-12-18T15:38:18;7.17;;;5.03;;
13461;SDS011;6803;45.264;5.468;2022-12-18T15:40:49;7.90;;;5.03;;
13461;SDS011;6803;45.264;5.468;2022-12-18T15:43:21;6.43;;;4.73;;
13461;SDS011;6803;45.264;5.468;2022-12-18T15:46:12;6.87;;;4.43;;
13461;SDS011;6803;45.264;5.468;2022-12-18T15:48:46;6.23;;;4.63;;
13461;SDS011;6803;45.264;5.468;2022-12-18T15:51:20;5.93;;;4.27;;
13461;SDS011;6803;45.264;5.468;2022-12-18T15:53:55;8.07;;;4.53;;
13461;SDS011;6803;45.264;5.468;2022-12-18T15:56:28;7.70;;;4.20;;
13461;SDS011;6803;45.264;5.468;2022-12-18T15:59:17;7.43;;;4.60;;